sensor_id;sensor_type;location;lat;lon;timestamp;P1;durP1;ratioP1;P2;durP2;ratioP2
70975;SDS011;58635;51.198;6.010;2023-09-19T00:01:33;8.98;;;2.17;;
70975;SDS011;58635;51.198;6.010;2023-09-19T00:04:00;12.60;;;2.78;;
70975;SDS011;58635;51.198;6.010;2023-09-19T00:06:30;10.73;;;2.30;;
70975;SDS011;58635;51.198;6.010;2023-09-19T00:08:57;9.68;;;2.20;;
70975;SDS011;58635;51.198;6.010;2023-09-19T00:11:28;8.40;;;2.05;;
70975;SDS011;58635;51.198;6.010;2023-09-19T00:13:55;10.13;;;2.25;;
70975;SDS011;58635;51.198;6.010;2023-09-19T00:16:22;9.10;;;2.00;;
70975;SDS011;58635;51.198;6.010;2023-09-19T00:18:49;8.82;;;2.50;;
70975;SDS011;58635;51.198;6.010;2023-09-19T00:21:15;10.23;;;2.67;;
70975;SDS011;58635;51.198;6.010;2023-09-19T00:23:41;11.45;;;2.40;;
70975;SDS011;58635;51.198;6.010;2023-09-19T00:26:08;9.15;;;2.35;;
70975;SDS011;58635;51.198;6.010;2023-09-19T00:28:34;10.05;;;2.20;;
70975;SDS011;58635;51.198;6.010;2023-09-19T00:31:01;10.45;;;2.20;;
70975;SDS011;58635;51.198;6.010;2023-09-19T00:33:28;9.13;;;2.30;;
70975;SDS011;58635;51.198;6.010;2023-09-19T00:35:56;13.07;;;2.45;;
70975;SDS011;58635;51.198;6.010;2023-09-19T00:38:23;13.43;;;2.42;;
70975;SDS011;58635;51.198;6.010;2023-09-19T00:40:54;8.68;;;2.00;;
70975;SDS011;58635;51.198;6.010;2023-09-19T00:43:20;11.13;;;2.40;;
70975;SDS011;58635;51.198;6.010;2023-09-19T00:45:48;10.32;;;1.95;;
70975;SDS011;58635;51.198;6.010;2023-09-19T00:48:17;13.85;;;2.53;;
70975;SDS011;58635;51.198;6.010;2023-09-19T00:50:45;10.32;;;2.22;;
70975;SDS011;58635;51.198;6.010;2023-09-19T00:53:14;12.23;;;2.55;;
70975;SDS011;58635;51.198;6.010;2023-09-19T00:55:44;8.93;;;1.95;;
70975;SDS011;58635;51.198;6.010;2023-09-19T00:58:12;7.45;;;2.22;;
70975;SDS011;58635;51.198;6.010;2023-09-19T01:00:38;10.15;;;2.05;;
70975;SDS011;58635;51.198;6.010;2023-09-19T01:03:06;9.27;;;2.28;;
70975;SDS011;58635;51.198;6.010;2023-09-19T01:05:33;8.32;;;1.98;;
70975;SDS011;58635;51.198;6.010;2023-09-19T01:07:59;14.27;;;2.42;;
70975;SDS011;58635;51.198;6.010;2023-09-19T01:10:26;9.50;;;2.28;;
70975;SDS011;58635;51.198;6.010;2023-09-19T01:12:55;9.43;;;2.30;;
70975;SDS011;58635;51.198;6.010;2023-09-19T01:29:26;8.25;;;1.80;;
70975;SDS011;58635;51.198;6.010;2023-09-19T01:32:00;10.43;;;2.45;;
70975;SDS011;58635;51.198;6.010;2023-09-19T01:34:46;10.07;;;2.08;;
70975;SDS011;58635;51.198;6.010;2023-09-19T01:37:14;6.93;;;2.08;;
70975;SDS011;58635;51.198;6.010;2023-09-19T01:39:52;6.45;;;1.95;;
70975;SDS011;58635;51.198;6.010;2023-09-19T01:42:28;8.93;;;1.92;;
70975;SDS011;58635;51.198;6.010;2023-09-19T01:48:25;12.18;;;2.20;;
70975;SDS011;58635;51.198;6.010;2023-09-19T01:51:11;7.25;;;1.75;;
70975;SDS011;58635;51.198;6.010;2023-09-19T01:53:43;7.55;;;2.50;;
70975;SDS011;58635;51.198;6.010;2023-09-19T01:56:16;6.55;;;2.22;;
70975;SDS011;58635;51.198;6.010;2023-09-19T01:58:49;10.23;;;2.38;;
70975;SDS011;58635;51.198;6.010;2023-09-19T02:01:22;9.13;;;2.40;;
70975;SDS011;58635;51.198;6.010;2023-09-19T02:03:50;9.07;;;2.38;;
70975;SDS011;58635;51.198;6.010;2023-09-19T02:06:18;10.85;;;2.10;;
70975;SDS011;58635;51.198;6.010;2023-09-19T02:08:45;8.07;;;2.28;;
70975;SDS011;58635;51.198;6.010;2023-09-19T02:11:11;11.18;;;2.45;;
70975;SDS011;58635;51.198;6.010;2023-09-19T02:13:39;8.82;;;2.00;;
70975;SDS011;58635;51.198;6.010;2023-09-19T02:16:06;8.20;;;2.20;;
70975;SDS011;58635;51.198;6.010;2023-09-19T02:18:35;9.38;;;2.22;;
70975;SDS011;58635;51.198;6.010;2023-09-19T02:21:02;7.63;;;1.98;;
70975;SDS011;58635;51.198;6.010;2023-09-19T02:23:30;14.73;;;2.40;;
70975;SDS011;58635;51.198;6.010;2023-09-19T02:25:56;10.88;;;2.08;;
70975;SDS011;58635;51.198;6.010;2023-09-19T02:28:32;9.82;;;1.80;;
70975;SDS011;58635;51.198;6.010;2023-09-19T02:30:58;11.07;;;2.47;;
70975;SDS011;58635;51.198;6.010;2023-09-19T02:33:25;11.48;;;2.35;;
70975;SDS011;58635;51.198;6.010;2023-09-19T02:35:55;9.95;;;2.15;;
70975;SDS011;58635;51.198;6.010;2023-09-19T02:38:24;10.43;;;2.38;;
70975;SDS011;58635;51.198;6.010;2023-09-19T02:40:53;9.45;;;2.28;;
70975;SDS011;58635;51.198;6.010;2023-09-19T02:43:21;9.15;;;2.00;;
70975;SDS011;58635;51.198;6.010;2023-09-19T02:45:48;7.63;;;2.13;;
70975;SDS011;58635;51.198;6.010;2023-09-19T02:50:50;7.95;;;2.08;;
70975;SDS011;58635;51.198;6.010;2023-09-19T02:53:17;9.40;;;2.20;;
70975;SDS011;58635;51.198;6.010;2023-09-19T02:55:45;7.47;;;1.95;;
70975;SDS011;58635;51.198;6.010;2023-09-19T02:58:12;7.82;;;2.30;;
70975;SDS011;58635;51.198;6.010;2023-09-19T03:00:41;9.38;;;2.30;;
70975;SDS011;58635;51.198;6.010;2023-09-19T03:03:08;9.35;;;2.33;;
70975;SDS011;58635;51.198;6.010;2023-09-19T03:05:35;7.03;;;2.33;;
70975;SDS011;58635;51.198;6.010;2023-09-19T03:08:01;7.53;;;2.03;;
70975;SDS011;58635;51.198;6.010;2023-09-19T03:10:27;8.50;;;2.10;;
70975;SDS011;58635;51.198;6.010;2023-09-19T03:12:55;6.75;;;2.42;;
70975;SDS011;58635;51.198;6.010;2023-09-19T03:15:21;7.40;;;2.15;;
70975;SDS011;58635;51.198;6.010;2023-09-19T03:17:48;7.85;;;2.28;;
70975;SDS011;58635;51.198;6.010;2023-09-19T03:20:15;6.75;;;1.80;;
70975;SDS011;58635;51.198;6.010;2023-09-19T03:22:45;8.65;;;2.30;;
70975;SDS011;58635;51.198;6.010;2023-09-19T03:25:12;9.40;;;2.55;;
70975;SDS011;58635;51.198;6.010;2023-09-19T03:27:39;10.30;;;2.38;;
70975;SDS011;58635;51.198;6.010;2023-09-19T03:30:06;9.02;;;2.85;;
70975;SDS011;58635;51.198;6.010;2023-09-19T03:32:45;7.93;;;2.00;;
70975;SDS011;58635;51.198;6.010;2023-09-19T03:35:13;7.80;;;2.13;;
70975;SDS011;58635;51.198;6.010;2023-09-19T03:37:40;8.52;;;2.17;;
70975;SDS011;58635;51.198;6.010;2023-09-19T03:40:08;10.82;;;2.08;;
70975;SDS011;58635;51.198;6.010;2023-09-19T03:42:42;5.85;;;2.15;;
70975;SDS011;58635;51.198;6.010;2023-09-19T03:45:09;10.30;;;2.57;;
70975;SDS011;58635;51.198;6.010;2023-09-19T03:47:38;9.25;;;2.17;;
70975;SDS011;58635;51.198;6.010;2023-09-19T03:50:05;10.10;;;2.28;;
70975;SDS011;58635;51.198;6.010;2023-09-19T03:52:41;6.80;;;2.10;;
70975;SDS011;58635;51.198;6.010;2023-09-19T03:55:08;8.48;;;2.22;;
70975;SDS011;58635;51.198;6.010;2023-09-19T03:57:35;7.22;;;2.47;;
70975;SDS011;58635;51.198;6.010;2023-09-19T04:00:02;9.10;;;2.30;;
70975;SDS011;58635;51.198;6.010;2023-09-19T04:02:31;10.55;;;2.30;;
70975;SDS011;58635;51.198;6.010;2023-09-19T04:04:59;9.30;;;2.58;;
70975;SDS011;58635;51.198;6.010;2023-09-19T04:07:25;11.13;;;2.70;;
70975;SDS011;58635;51.198;6.010;2023-09-19T04:09:54;7.13;;;2.00;;
70975;SDS011;58635;51.198;6.010;2023-09-19T04:12:21;10.27;;;2.17;;
70975;SDS011;58635;51.198;6.010;2023-09-19T04:14:48;10.20;;;2.08;;
70975;SDS011;58635;51.198;6.010;2023-09-19T04:17:16;10.10;;;2.15;;
70975;SDS011;58635;51.198;6.010;2023-09-19T04:19:42;11.00;;;2.35;;
70975;SDS011;58635;51.198;6.010;2023-09-19T04:22:08;8.20;;;1.85;;
70975;SDS011;58635;51.198;6.010;2023-09-19T04:24:35;10.70;;;2.10;;
70975;SDS011;58635;51.198;6.010;2023-09-19T04:27:01;11.18;;;2.47;;
70975;SDS011;58635;51.198;6.010;2023-09-19T04:29:28;13.25;;;2.72;;
70975;SDS011;58635;51.198;6.010;2023-09-19T04:31:55;8.27;;;2.45;;
70975;SDS011;58635;51.198;6.010;2023-09-19T04:34:25;8.48;;;2.00;;
70975;SDS011;58635;51.198;6.010;2023-09-19T04:36:51;8.65;;;2.63;;
70975;SDS011;58635;51.198;6.010;2023-09-19T04:39:18;8.45;;;1.73;;
70975;SDS011;58635;51.198;6.010;2023-09-19T04:41:45;9.10;;;2.33;;
70975;SDS011;58635;51.198;6.010;2023-09-19T04:44:11;7.43;;;2.15;;
70975;SDS011;58635;51.198;6.010;2023-09-19T04:46:39;10.18;;;2.33;;
70975;SDS011;58635;51.198;6.010;2023-09-19T04:49:06;11.98;;;2.60;;
70975;SDS011;58635;51.198;6.010;2023-09-19T04:51:32;11.27;;;2.60;;
70975;SDS011;58635;51.198;6.010;2023-09-19T04:54:00;9.18;;;2.17;;
70975;SDS011;58635;51.198;6.010;2023-09-19T04:56:27;9.95;;;2.78;;
70975;SDS011;58635;51.198;6.010;2023-09-19T04:58:54;9.88;;;2.50;;
70975;SDS011;58635;51.198;6.010;2023-09-19T05:01:21;9.35;;;2.42;;
70975;SDS011;58635;51.198;6.010;2023-09-19T05:03:49;10.20;;;2.30;;
70975;SDS011;58635;51.198;6.010;2023-09-19T05:06:19;13.68;;;2.80;;
70975;SDS011;58635;51.198;6.010;2023-09-19T05:08:48;8.95;;;2.70;;
70975;SDS011;58635;51.198;6.010;2023-09-19T05:11:20;9.77;;;2.42;;
70975;SDS011;58635;51.198;6.010;2023-09-19T05:13:48;14.30;;;2.75;;
70975;SDS011;58635;51.198;6.010;2023-09-19T05:16:19;11.00;;;2.47;;
70975;SDS011;58635;51.198;6.010;2023-09-19T05:18:45;11.02;;;2.72;;
70975;SDS011;58635;51.198;6.010;2023-09-19T05:21:11;13.10;;;3.33;;
70975;SDS011;58635;51.198;6.010;2023-09-19T05:23:38;9.90;;;2.10;;
70975;SDS011;58635;51.198;6.010;2023-09-19T05:26:04;11.95;;;2.75;;
70975;SDS011;58635;51.198;6.010;2023-09-19T05:28:31;12.35;;;2.85;;
70975;SDS011;58635;51.198;6.010;2023-09-19T05:31:01;11.00;;;2.90;;
70975;SDS011;58635;51.198;6.010;2023-09-19T05:33:30;7.68;;;2.00;;
70975;SDS011;58635;51.198;6.010;2023-09-19T05:35:57;11.45;;;2.35;;
70975;SDS011;58635;51.198;6.010;2023-09-19T05:38:24;8.90;;;2.17;;
70975;SDS011;58635;51.198;6.010;2023-09-19T05:40:52;10.35;;;2.60;;
70975;SDS011;58635;51.198;6.010;2023-09-19T05:43:19;9.95;;;2.40;;
70975;SDS011;58635;51.198;6.010;2023-09-19T05:45:45;8.77;;;2.40;;
70975;SDS011;58635;51.198;6.010;2023-09-19T05:48:12;10.85;;;2.30;;
70975;SDS011;58635;51.198;6.010;2023-09-19T05:50:40;10.05;;;2.47;;
70975;SDS011;58635;51.198;6.010;2023-09-19T05:53:08;13.65;;;2.33;;
70975;SDS011;58635;51.198;6.010;2023-09-19T05:55:38;14.95;;;2.60;;
70975;SDS011;58635;51.198;6.010;2023-09-19T05:58:04;8.88;;;2.63;;
70975;SDS011;58635;51.198;6.010;2023-09-19T06:00:31;11.05;;;2.33;;
70975;SDS011;58635;51.198;6.010;2023-09-19T06:02:58;9.20;;;2.35;;
70975;SDS011;58635;51.198;6.010;2023-09-19T06:05:26;10.10;;;2.05;;
70975;SDS011;58635;51.198;6.010;2023-09-19T06:07:52;12.00;;;2.78;;
70975;SDS011;58635;51.198;6.010;2023-09-19T06:10:19;12.32;;;2.38;;
70975;SDS011;58635;51.198;6.010;2023-09-19T06:12:49;11.30;;;2.38;;
70975;SDS011;58635;51.198;6.010;2023-09-19T06:15:16;8.85;;;1.95;;
70975;SDS011;58635;51.198;6.010;2023-09-19T06:17:52;9.13;;;2.08;;
70975;SDS011;58635;51.198;6.010;2023-09-19T06:20:23;12.27;;;2.70;;
70975;SDS011;58635;51.198;6.010;2023-09-19T06:22:50;8.23;;;2.13;;
70975;SDS011;58635;51.198;6.010;2023-09-19T06:25:17;10.50;;;2.72;;
70975;SDS011;58635;51.198;6.010;2023-09-19T06:27:48;10.57;;;2.30;;
70975;SDS011;58635;51.198;6.010;2023-09-19T06:30:18;6.78;;;2.50;;
70975;SDS011;58635;51.198;6.010;2023-09-19T06:32:44;10.95;;;2.33;;
70975;SDS011;58635;51.198;6.010;2023-09-19T06:35:11;12.50;;;2.60;;
70975;SDS011;58635;51.198;6.010;2023-09-19T06:37:38;9.00;;;2.20;;
70975;SDS011;58635;51.198;6.010;2023-09-19T06:40:07;9.27;;;2.20;;
70975;SDS011;58635;51.198;6.010;2023-09-19T06:42:40;10.15;;;1.83;;
70975;SDS011;58635;51.198;6.010;2023-09-19T06:45:08;9.55;;;2.28;;
70975;SDS011;58635;51.198;6.010;2023-09-19T06:47:37;10.02;;;2.00;;
70975;SDS011;58635;51.198;6.010;2023-09-19T06:50:04;10.45;;;2.53;;
70975;SDS011;58635;51.198;6.010;2023-09-19T06:52:32;8.68;;;2.08;;
70975;SDS011;58635;51.198;6.010;2023-09-19T06:54:59;11.82;;;2.92;;
70975;SDS011;58635;51.198;6.010;2023-09-19T06:57:25;9.02;;;1.92;;
70975;SDS011;58635;51.198;6.010;2023-09-19T06:59:51;10.25;;;2.50;;
70975;SDS011;58635;51.198;6.010;2023-09-19T07:02:18;8.25;;;2.55;;
70975;SDS011;58635;51.198;6.010;2023-09-19T07:04:45;15.32;;;2.17;;
70975;SDS011;58635;51.198;6.010;2023-09-19T07:07:12;10.15;;;2.13;;
70975;SDS011;58635;51.198;6.010;2023-09-19T07:09:40;5.93;;;1.92;;
70975;SDS011;58635;51.198;6.010;2023-09-19T07:12:06;9.63;;;2.28;;
70975;SDS011;58635;51.198;6.010;2023-09-19T07:14:32;10.45;;;2.03;;
70975;SDS011;58635;51.198;6.010;2023-09-19T07:16:59;9.80;;;2.53;;
70975;SDS011;58635;51.198;6.010;2023-09-19T07:19:29;6.38;;;2.28;;
70975;SDS011;58635;51.198;6.010;2023-09-19T07:21:57;10.60;;;2.00;;
70975;SDS011;58635;51.198;6.010;2023-09-19T07:24:25;7.43;;;2.03;;
70975;SDS011;58635;51.198;6.010;2023-09-19T07:26:52;11.93;;;2.90;;
70975;SDS011;58635;51.198;6.010;2023-09-19T07:29:19;8.15;;;2.33;;
70975;SDS011;58635;51.198;6.010;2023-09-19T07:31:45;8.18;;;2.00;;
70975;SDS011;58635;51.198;6.010;2023-09-19T07:34:13;8.50;;;2.13;;
70975;SDS011;58635;51.198;6.010;2023-09-19T07:36:40;8.05;;;2.00;;
70975;SDS011;58635;51.198;6.010;2023-09-19T07:39:07;9.38;;;2.28;;
70975;SDS011;58635;51.198;6.010;2023-09-19T07:41:34;8.02;;;1.75;;
70975;SDS011;58635;51.198;6.010;2023-09-19T07:44:00;11.32;;;2.38;;
70975;SDS011;58635;51.198;6.010;2023-09-19T07:46:27;9.18;;;2.20;;
70975;SDS011;58635;51.198;6.010;2023-09-19T07:48:53;9.18;;;2.08;;
70975;SDS011;58635;51.198;6.010;2023-09-19T07:51:20;7.65;;;2.30;;
70975;SDS011;58635;51.198;6.010;2023-09-19T07:53:46;9.00;;;1.92;;
70975;SDS011;58635;51.198;6.010;2023-09-19T07:56:14;10.82;;;2.10;;
70975;SDS011;58635;51.198;6.010;2023-09-19T07:58:40;10.18;;;2.30;;
70975;SDS011;58635;51.198;6.010;2023-09-19T08:01:09;9.40;;;2.50;;
70975;SDS011;58635;51.198;6.010;2023-09-19T08:03:36;12.60;;;2.20;;
70975;SDS011;58635;51.198;6.010;2023-09-19T08:06:07;9.55;;;2.15;;
70975;SDS011;58635;51.198;6.010;2023-09-19T08:08:34;9.45;;;2.00;;
70975;SDS011;58635;51.198;6.010;2023-09-19T08:11:04;10.60;;;2.38;;
70975;SDS011;58635;51.198;6.010;2023-09-19T08:13:38;9.85;;;2.45;;
70975;SDS011;58635;51.198;6.010;2023-09-19T08:16:09;12.15;;;2.83;;
70975;SDS011;58635;51.198;6.010;2023-09-19T08:18:36;9.85;;;2.35;;
70975;SDS011;58635;51.198;6.010;2023-09-19T08:21:07;10.85;;;2.20;;
70975;SDS011;58635;51.198;6.010;2023-09-19T08:23:36;9.88;;;2.38;;
70975;SDS011;58635;51.198;6.010;2023-09-19T08:26:04;11.13;;;2.38;;
70975;SDS011;58635;51.198;6.010;2023-09-19T08:28:34;13.07;;;2.53;;
70975;SDS011;58635;51.198;6.010;2023-09-19T08:31:02;9.32;;;2.28;;
70975;SDS011;58635;51.198;6.010;2023-09-19T08:33:35;9.52;;;2.10;;
70975;SDS011;58635;51.198;6.010;2023-09-19T08:36:03;10.82;;;2.42;;
70975;SDS011;58635;51.198;6.010;2023-09-19T08:38:30;13.32;;;2.42;;
70975;SDS011;58635;51.198;6.010;2023-09-19T08:40:59;9.98;;;2.28;;
70975;SDS011;58635;51.198;6.010;2023-09-19T08:43:26;8.80;;;2.22;;
70975;SDS011;58635;51.198;6.010;2023-09-19T08:46:03;10.18;;;2.22;;
70975;SDS011;58635;51.198;6.010;2023-09-19T08:48:39;8.70;;;2.17;;
70975;SDS011;58635;51.198;6.010;2023-09-19T08:51:26;10.52;;;2.45;;
70975;SDS011;58635;51.198;6.010;2023-09-19T08:54:08;9.85;;;2.22;;
70975;SDS011;58635;51.198;6.010;2023-09-19T08:56:39;8.07;;;1.73;;
70975;SDS011;58635;51.198;6.010;2023-09-19T08:59:08;10.35;;;2.10;;
70975;SDS011;58635;51.198;6.010;2023-09-19T09:01:35;7.25;;;2.10;;
70975;SDS011;58635;51.198;6.010;2023-09-19T09:04:03;11.82;;;2.03;;
70975;SDS011;58635;51.198;6.010;2023-09-19T09:06:35;9.40;;;2.55;;
70975;SDS011;58635;51.198;6.010;2023-09-19T09:09:02;9.75;;;2.10;;
70975;SDS011;58635;51.198;6.010;2023-09-19T09:11:29;6.95;;;1.90;;
70975;SDS011;58635;51.198;6.010;2023-09-19T09:13:59;11.50;;;2.38;;
70975;SDS011;58635;51.198;6.010;2023-09-19T09:16:26;9.60;;;2.30;;
70975;SDS011;58635;51.198;6.010;2023-09-19T09:18:52;8.95;;;1.88;;
70975;SDS011;58635;51.198;6.010;2023-09-19T09:21:21;7.45;;;2.08;;
70975;SDS011;58635;51.198;6.010;2023-09-19T09:23:48;11.32;;;2.38;;
70975;SDS011;58635;51.198;6.010;2023-09-19T09:26:15;10.23;;;2.38;;
70975;SDS011;58635;51.198;6.010;2023-09-19T09:28:46;8.65;;;1.92;;
70975;SDS011;58635;51.198;6.010;2023-09-19T09:31:22;10.82;;;2.40;;
70975;SDS011;58635;51.198;6.010;2023-09-19T09:33:53;10.73;;;2.25;;
70975;SDS011;58635;51.198;6.010;2023-09-19T09:36:37;8.63;;;2.20;;
70975;SDS011;58635;51.198;6.010;2023-09-19T09:39:04;9.00;;;2.42;;
70975;SDS011;58635;51.198;6.010;2023-09-19T09:41:50;10.68;;;2.30;;
70975;SDS011;58635;51.198;6.010;2023-09-19T09:44:17;9.57;;;2.40;;
70975;SDS011;58635;51.198;6.010;2023-09-19T09:46:45;13.63;;;2.78;;
70975;SDS011;58635;51.198;6.010;2023-09-19T09:49:18;8.55;;;2.40;;
70975;SDS011;58635;51.198;6.010;2023-09-19T09:51:59;6.85;;;1.92;;
70975;SDS011;58635;51.198;6.010;2023-09-19T09:54:27;9.07;;;1.98;;
70975;SDS011;58635;51.198;6.010;2023-09-19T09:57:05;10.45;;;2.35;;
70975;SDS011;58635;51.198;6.010;2023-09-19T09:59:56;9.75;;;2.35;;
70975;SDS011;58635;51.198;6.010;2023-09-19T10:02:28;8.32;;;2.05;;
70975;SDS011;58635;51.198;6.010;2023-09-19T10:04:56;8.02;;;1.92;;
70975;SDS011;58635;51.198;6.010;2023-09-19T10:07:33;8.02;;;2.28;;
70975;SDS011;58635;51.198;6.010;2023-09-19T10:10:04;7.35;;;1.90;;
70975;SDS011;58635;51.198;6.010;2023-09-19T10:12:48;8.90;;;1.92;;
70975;SDS011;58635;51.198;6.010;2023-09-19T10:15:18;10.40;;;2.33;;
70975;SDS011;58635;51.198;6.010;2023-09-19T10:17:50;10.23;;;2.20;;
70975;SDS011;58635;51.198;6.010;2023-09-19T10:20:24;8.73;;;2.20;;
70975;SDS011;58635;51.198;6.010;2023-09-19T10:23:10;6.88;;;1.95;;
70975;SDS011;58635;51.198;6.010;2023-09-19T10:25:41;9.90;;;2.13;;
70975;SDS011;58635;51.198;6.010;2023-09-19T10:28:10;9.75;;;2.30;;
70975;SDS011;58635;51.198;6.010;2023-09-19T10:30:43;10.25;;;2.58;;
70975;SDS011;58635;51.198;6.010;2023-09-19T10:33:11;9.48;;;2.58;;
70975;SDS011;58635;51.198;6.010;2023-09-19T10:35:39;9.20;;;2.00;;
70975;SDS011;58635;51.198;6.010;2023-09-19T10:38:11;10.77;;;2.22;;
70975;SDS011;58635;51.198;6.010;2023-09-19T10:40:40;8.07;;;2.33;;
70975;SDS011;58635;51.198;6.010;2023-09-19T10:43:13;9.02;;;2.00;;
70975;SDS011;58635;51.198;6.010;2023-09-19T10:45:45;8.98;;;2.40;;
70975;SDS011;58635;51.198;6.010;2023-09-19T10:48:16;7.15;;;1.80;;
70975;SDS011;58635;51.198;6.010;2023-09-19T10:53:21;6.40;;;2.30;;
70975;SDS011;58635;51.198;6.010;2023-09-19T10:55:59;7.18;;;2.20;;
70975;SDS011;58635;51.198;6.010;2023-09-19T10:58:29;8.70;;;2.03;;
70975;SDS011;58635;51.198;6.010;2023-09-19T11:01:00;8.80;;;2.15;;
70975;SDS011;58635;51.198;6.010;2023-09-19T11:03:31;8.02;;;2.38;;
70975;SDS011;58635;51.198;6.010;2023-09-19T11:06:09;8.88;;;2.25;;
70975;SDS011;58635;51.198;6.010;2023-09-19T11:08:59;9.48;;;1.90;;
70975;SDS011;58635;51.198;6.010;2023-09-19T11:11:42;11.48;;;2.15;;
70975;SDS011;58635;51.198;6.010;2023-09-19T11:30:35;9.77;;;2.25;;
70975;SDS011;58635;51.198;6.010;2023-09-19T11:33:20;7.95;;;2.30;;
70975;SDS011;58635;51.198;6.010;2023-09-19T11:36:10;6.68;;;1.80;;
70975;SDS011;58635;51.198;6.010;2023-09-19T11:46:33;8.57;;;1.88;;
70975;SDS011;58635;51.198;6.010;2023-09-19T11:49:06;8.70;;;2.15;;
70975;SDS011;58635;51.198;6.010;2023-09-19T11:51:41;5.20;;;1.52;;
70975;SDS011;58635;51.198;6.010;2023-09-19T11:54:16;8.25;;;1.85;;
70975;SDS011;58635;51.198;6.010;2023-09-19T11:56:45;8.35;;;2.03;;
70975;SDS011;58635;51.198;6.010;2023-09-19T11:59:19;6.43;;;1.73;;
70975;SDS011;58635;51.198;6.010;2023-09-19T12:04:39;8.02;;;2.33;;
70975;SDS011;58635;51.198;6.010;2023-09-19T12:07:13;6.65;;;1.77;;
70975;SDS011;58635;51.198;6.010;2023-09-19T12:09:42;7.72;;;1.70;;
70975;SDS011;58635;51.198;6.010;2023-09-19T12:15:22;6.43;;;1.73;;
70975;SDS011;58635;51.198;6.010;2023-09-19T12:17:54;9.00;;;1.92;;
70975;SDS011;58635;51.198;6.010;2023-09-19T12:20:20;7.38;;;1.90;;
70975;SDS011;58635;51.198;6.010;2023-09-19T12:22:47;5.13;;;1.50;;
70975;SDS011;58635;51.198;6.010;2023-09-19T12:25:15;6.53;;;1.55;;
70975;SDS011;58635;51.198;6.010;2023-09-19T12:27:47;5.10;;;1.40;;
70975;SDS011;58635;51.198;6.010;2023-09-19T12:30:19;6.80;;;1.60;;
70975;SDS011;58635;51.198;6.010;2023-09-19T12:32:46;4.80;;;1.40;;
70975;SDS011;58635;51.198;6.010;2023-09-19T12:35:27;6.53;;;1.40;;
70975;SDS011;58635;51.198;6.010;2023-09-19T12:38:01;5.88;;;1.63;;
70975;SDS011;58635;51.198;6.010;2023-09-19T12:40:29;4.57;;;1.50;;
70975;SDS011;58635;51.198;6.010;2023-09-19T12:43:00;5.78;;;1.63;;
70975;SDS011;58635;51.198;6.010;2023-09-19T12:45:29;5.68;;;1.30;;
70975;SDS011;58635;51.198;6.010;2023-09-19T12:51:02;5.45;;;1.42;;
70975;SDS011;58635;51.198;6.010;2023-09-19T12:53:32;5.22;;;1.40;;
70975;SDS011;58635;51.198;6.010;2023-09-19T12:56:06;9.25;;;1.30;;
70975;SDS011;58635;51.198;6.010;2023-09-19T12:58:34;3.75;;;1.02;;
70975;SDS011;58635;51.198;6.010;2023-09-19T13:01:15;6.18;;;1.30;;
70975;SDS011;58635;51.198;6.010;2023-09-19T13:03:42;4.45;;;1.00;;
70975;SDS011;58635;51.198;6.010;2023-09-19T13:06:08;4.55;;;1.23;;
70975;SDS011;58635;51.198;6.010;2023-09-19T13:08:37;3.15;;;0.88;;
70975;SDS011;58635;51.198;6.010;2023-09-19T13:13:36;5.35;;;1.13;;
70975;SDS011;58635;51.198;6.010;2023-09-19T13:16:04;5.53;;;1.10;;
70975;SDS011;58635;51.198;6.010;2023-09-19T13:18:41;4.82;;;1.05;;
70975;SDS011;58635;51.198;6.010;2023-09-19T13:21:11;4.07;;;1.08;;
70975;SDS011;58635;51.198;6.010;2023-09-19T13:23:51;4.45;;;1.10;;
70975;SDS011;58635;51.198;6.010;2023-09-19T13:26:18;5.30;;;0.90;;
70975;SDS011;58635;51.198;6.010;2023-09-19T13:28:45;4.15;;;1.05;;
70975;SDS011;58635;51.198;6.010;2023-09-19T13:31:14;3.05;;;0.93;;
70975;SDS011;58635;51.198;6.010;2023-09-19T13:33:43;7.22;;;1.15;;
70975;SDS011;58635;51.198;6.010;2023-09-19T13:36:11;5.38;;;1.10;;
70975;SDS011;58635;51.198;6.010;2023-09-19T13:38:39;4.18;;;1.00;;
70975;SDS011;58635;51.198;6.010;2023-09-19T13:41:09;5.28;;;1.00;;
70975;SDS011;58635;51.198;6.010;2023-09-19T13:43:37;4.53;;;1.25;;
70975;SDS011;58635;51.198;6.010;2023-09-19T13:46:05;6.25;;;1.20;;
70975;SDS011;58635;51.198;6.010;2023-09-19T13:48:33;5.05;;;1.17;;
70975;SDS011;58635;51.198;6.010;2023-09-19T13:51:02;3.42;;;1.20;;
70975;SDS011;58635;51.198;6.010;2023-09-19T13:53:29;2.30;;;0.95;;
70975;SDS011;58635;51.198;6.010;2023-09-19T13:55:56;4.28;;;1.00;;
70975;SDS011;58635;51.198;6.010;2023-09-19T13:58:22;5.68;;;1.00;;
70975;SDS011;58635;51.198;6.010;2023-09-19T14:00:50;1.58;;;0.70;;
70975;SDS011;58635;51.198;6.010;2023-09-19T14:03:16;3.00;;;1.08;;
70975;SDS011;58635;51.198;6.010;2023-09-19T14:05:43;3.75;;;0.98;;
70975;SDS011;58635;51.198;6.010;2023-09-19T14:08:10;3.38;;;1.00;;
70975;SDS011;58635;51.198;6.010;2023-09-19T14:10:38;3.60;;;0.80;;
70975;SDS011;58635;51.198;6.010;2023-09-19T14:13:05;2.63;;;0.80;;
70975;SDS011;58635;51.198;6.010;2023-09-19T14:15:31;4.93;;;1.10;;
70975;SDS011;58635;51.198;6.010;2023-09-19T14:18:00;3.03;;;0.80;;
70975;SDS011;58635;51.198;6.010;2023-09-19T14:20:27;4.13;;;1.00;;
70975;SDS011;58635;51.198;6.010;2023-09-19T14:22:53;4.93;;;1.10;;
70975;SDS011;58635;51.198;6.010;2023-09-19T14:25:20;3.63;;;1.05;;
70975;SDS011;58635;51.198;6.010;2023-09-19T14:27:47;3.63;;;0.90;;
70975;SDS011;58635;51.198;6.010;2023-09-19T14:30:14;4.05;;;0.90;;
70975;SDS011;58635;51.198;6.010;2023-09-19T14:32:40;4.78;;;1.20;;
70975;SDS011;58635;51.198;6.010;2023-09-19T14:35:07;5.00;;;1.10;;
70975;SDS011;58635;51.198;6.010;2023-09-19T14:37:35;3.75;;;1.08;;
70975;SDS011;58635;51.198;6.010;2023-09-19T14:40:01;3.67;;;0.93;;
70975;SDS011;58635;51.198;6.010;2023-09-19T14:42:29;5.57;;;1.10;;
70975;SDS011;58635;51.198;6.010;2023-09-19T14:44:55;3.10;;;1.10;;
70975;SDS011;58635;51.198;6.010;2023-09-19T14:47:22;4.43;;;1.10;;
70975;SDS011;58635;51.198;6.010;2023-09-19T14:49:49;3.80;;;1.08;;
70975;SDS011;58635;51.198;6.010;2023-09-19T14:52:15;3.72;;;0.98;;
70975;SDS011;58635;51.198;6.010;2023-09-19T14:54:42;4.43;;;0.80;;
70975;SDS011;58635;51.198;6.010;2023-09-19T14:57:08;4.18;;;1.08;;
70975;SDS011;58635;51.198;6.010;2023-09-19T14:59:36;4.47;;;0.90;;
70975;SDS011;58635;51.198;6.010;2023-09-19T15:02:05;5.30;;;1.35;;
70975;SDS011;58635;51.198;6.010;2023-09-19T15:04:31;3.38;;;1.10;;
70975;SDS011;58635;51.198;6.010;2023-09-19T15:06:59;6.35;;;1.00;;
70975;SDS011;58635;51.198;6.010;2023-09-19T15:09:26;6.40;;;1.02;;
70975;SDS011;58635;51.198;6.010;2023-09-19T15:11:52;3.30;;;1.08;;
70975;SDS011;58635;51.198;6.010;2023-09-19T15:14:19;3.83;;;0.98;;
70975;SDS011;58635;51.198;6.010;2023-09-19T15:16:46;6.38;;;0.98;;
70975;SDS011;58635;51.198;6.010;2023-09-19T15:19:14;4.15;;;0.80;;
70975;SDS011;58635;51.198;6.010;2023-09-19T15:21:41;7.32;;;1.20;;
70975;SDS011;58635;51.198;6.010;2023-09-19T15:24:07;3.80;;;1.00;;
70975;SDS011;58635;51.198;6.010;2023-09-19T15:26:36;4.93;;;1.20;;
70975;SDS011;58635;51.198;6.010;2023-09-19T15:29:05;3.20;;;1.00;;
70975;SDS011;58635;51.198;6.010;2023-09-19T15:31:32;4.85;;;1.10;;
70975;SDS011;58635;51.198;6.010;2023-09-19T15:33:59;4.18;;;1.00;;
70975;SDS011;58635;51.198;6.010;2023-09-19T15:36:26;5.13;;;1.10;;
70975;SDS011;58635;51.198;6.010;2023-09-19T15:41:30;4.47;;;1.10;;
70975;SDS011;58635;51.198;6.010;2023-09-19T15:43:58;4.20;;;1.00;;
70975;SDS011;58635;51.198;6.010;2023-09-19T15:46:27;6.05;;;1.23;;
70975;SDS011;58635;51.198;6.010;2023-09-19T15:48:55;4.10;;;0.90;;
70975;SDS011;58635;51.198;6.010;2023-09-19T15:51:23;6.50;;;1.00;;
70975;SDS011;58635;51.198;6.010;2023-09-19T15:53:50;6.18;;;1.10;;
70975;SDS011;58635;51.198;6.010;2023-09-19T15:56:19;3.40;;;0.80;;